createdAt,value
2023-05-14T00:00:02.450Z,9.09
2023-05-14T00:02:50.486Z,9.07
2023-05-14T00:05:18.448Z,9.06
2023-05-14T00:07:46.299Z,9.04
2023-05-14T00:10:14.362Z,9.03
2023-05-14T00:12:42.392Z,9.02
2023-05-14T00:15:10.388Z,9.02
2023-05-14T00:17:38.414Z,9.01
2023-05-14T00:20:12.083Z,9.01
2023-05-14T00:22:40.178Z,9.00
2023-05-14T00:25:09.294Z,8.99
2023-05-14T00:27:40.024Z,8.98
2023-05-14T00:30:08.369Z,8.99
2023-05-14T00:32:36.340Z,8.97
2023-05-14T00:35:04.586Z,8.94
2023-05-14T00:37:32.632Z,8.92
2023-05-14T00:40:00.508Z,8.89
2023-05-14T00:42:28.520Z,8.84
2023-05-14T00:44:56.432Z,8.81
2023-05-14T00:47:24.377Z,8.77
2023-05-14T00:49:52.504Z,8.74
2023-05-14T00:52:20.722Z,8.70
2023-05-14T00:54:49.393Z,8.62
2023-05-14T00:57:18.995Z,8.57
2023-05-14T00:59:47.231Z,8.54
2023-05-14T01:02:15.127Z,8.49
2023-05-14T01:04:43.228Z,8.45
2023-05-14T01:07:25.934Z,8.42
2023-05-14T01:10:13.694Z,8.38
2023-05-14T01:12:48.493Z,8.34
2023-05-14T01:15:23.908Z,8.31
2023-05-14T01:17:59.182Z,8.29
2023-05-14T01:20:27.436Z,8.27
2023-05-14T01:22:55.503Z,8.25
2023-05-14T01:25:23.454Z,8.24
2023-05-14T01:28:25.294Z,8.23
2023-05-14T01:31:12.126Z,8.22
2023-05-14T01:33:42.461Z,8.21
2023-05-14T01:36:11.103Z,8.20
2023-05-14T01:38:39.936Z,8.18
2023-05-14T01:41:08.297Z,8.16
2023-05-14T01:43:37.432Z,8.15
2023-05-14T01:46:05.670Z,8.14
2023-05-14T01:48:33.649Z,8.12
2023-05-14T01:51:02.651Z,8.09
2023-05-14T01:53:30.746Z,8.06
2023-05-14T01:55:58.683Z,8.02
2023-05-14T01:58:26.682Z,7.99
2023-05-14T02:00:54.623Z,7.96
2023-05-14T02:03:22.707Z,7.94
2023-05-14T02:05:51.236Z,7.92
2023-05-14T02:08:19.290Z,7.90
2023-05-14T02:10:47.163Z,7.87
2023-05-14T02:13:15.112Z,7.85
2023-05-14T02:15:43.074Z,7.83
2023-05-14T02:18:11.051Z,7.81
2023-05-14T02:20:39.181Z,7.79
2023-05-14T02:23:07.224Z,7.77
2023-05-14T02:25:35.352Z,7.73
2023-05-14T02:28:03.451Z,7.72
2023-05-14T02:30:31.572Z,7.70
2023-05-14T02:32:59.613Z,7.69
2023-05-14T02:35:27.632Z,7.67
2023-05-14T02:37:56.265Z,7.63
2023-05-14T02:40:24.476Z,7.58
2023-05-14T02:42:52.685Z,7.55
2023-05-14T02:45:21.652Z,7.52
2023-05-14T02:47:49.616Z,7.49
2023-05-14T02:50:17.762Z,7.49
2023-05-14T02:52:45.660Z,7.49
2023-05-14T02:55:13.570Z,7.49
2023-05-14T02:57:41.543Z,7.50
2023-05-14T03:00:10.194Z,7.50
2023-05-14T03:02:38.950Z,7.50
2023-05-14T03:05:07.718Z,7.51
2023-05-14T03:07:35.768Z,7.52
2023-05-14T03:10:04.231Z,7.53
2023-05-14T03:12:32.149Z,7.54
2023-05-14T03:15:00.121Z,7.54
2023-05-14T03:17:28.119Z,7.54
2023-05-14T03:19:56.080Z,7.56
2023-05-14T03:22:24.042Z,7.56
2023-05-14T03:24:52.428Z,7.58
2023-05-14T03:27:20.863Z,7.59
2023-05-14T03:29:48.833Z,7.59
2023-05-14T03:32:18.160Z,7.65
2023-05-14T03:34:46.110Z,7.72
2023-05-14T03:37:14.112Z,7.79
2023-05-14T03:39:42.125Z,7.87
2023-05-14T03:42:10.093Z,7.98
2023-05-14T03:44:38.350Z,8.13
2023-05-14T03:47:06.334Z,8.28
2023-05-14T03:49:34.235Z,8.48
2023-05-14T03:52:02.169Z,8.71
2023-05-14T03:54:30.247Z,8.91
2023-05-14T03:56:58.123Z,9.14
2023-05-14T03:59:26.073Z,9.33
2023-05-14T04:01:54.911Z,9.56
2023-05-14T04:04:22.923Z,9.83
2023-05-14T04:06:51.026Z,10.10
2023-05-14T04:09:18.929Z,10.34
2023-05-14T04:11:47.004Z,10.50
2023-05-14T04:14:15.041Z,10.65
2023-05-14T04:16:44.147Z,10.79
2023-05-14T04:19:12.388Z,10.87
2023-05-14T04:21:40.507Z,10.95
2023-05-14T04:24:08.592Z,10.98
2023-05-14T04:26:36.599Z,10.99
2023-05-14T04:29:04.564Z,11.00
2023-05-14T04:31:32.514Z,11.05
2023-05-14T04:34:00.502Z,11.11
2023-05-14T04:36:28.520Z,11.20
2023-05-14T04:38:56.659Z,11.32
2023-05-14T04:41:24.608Z,11.50
2023-05-14T04:43:56.261Z,11.72
2023-05-14T04:46:24.229Z,11.99
2023-05-14T04:48:52.242Z,12.21
2023-05-14T04:51:20.105Z,12.38
2023-05-14T04:53:47.987Z,12.42
2023-05-14T04:56:15.929Z,12.54
2023-05-14T04:58:43.851Z,12.73
2023-05-14T05:01:11.835Z,12.88
2023-05-14T05:03:39.832Z,13.08
2023-05-14T05:06:07.933Z,13.26
2023-05-14T05:08:36.543Z,13.43
2023-05-14T05:11:05.107Z,13.59
2023-05-14T05:13:33.090Z,13.72
2023-05-14T05:16:01.146Z,13.78
2023-05-14T05:18:29.180Z,13.79
2023-05-14T05:20:57.089Z,13.76
2023-05-14T05:23:24.981Z,13.74
2023-05-14T05:25:52.898Z,13.68
2023-05-14T05:28:20.844Z,13.59
2023-05-14T05:30:48.872Z,13.47
2023-05-14T05:33:16.996Z,13.39
2023-05-14T05:35:44.923Z,13.44
2023-05-14T05:38:12.962Z,13.51
2023-05-14T05:40:41.055Z,13.61
2023-05-14T05:43:09.016Z,13.65
2023-05-14T05:45:36.931Z,13.85
2023-05-14T05:48:05.645Z,14.05
2023-05-14T05:50:33.798Z,14.25
2023-05-14T05:53:01.951Z,14.37
2023-05-14T05:55:30.051Z,14.51
2023-05-14T05:57:58.141Z,14.68
2023-05-14T06:00:26.224Z,14.88
2023-05-14T06:02:54.355Z,15.10
2023-05-14T06:05:22.345Z,15.30
2023-05-14T06:07:50.575Z,15.51
2023-05-14T06:10:19.100Z,15.71
2023-05-14T06:12:47.148Z,15.91
2023-05-14T06:15:15.341Z,16.11
2023-05-14T06:17:43.334Z,16.30
2023-05-14T06:20:11.856Z,16.46
2023-05-14T06:22:39.843Z,16.58
2023-05-14T06:25:08.312Z,16.64
2023-05-14T06:27:36.277Z,16.63
2023-05-14T06:30:04.623Z,16.61
2023-05-14T06:32:32.722Z,16.61
2023-05-14T06:35:00.776Z,16.65
2023-05-14T06:37:28.691Z,16.68
2023-05-14T06:39:57.879Z,16.69
2023-05-14T06:42:26.578Z,16.68
2023-05-14T06:44:54.804Z,16.65
2023-05-14T06:47:22.800Z,16.65
2023-05-14T06:49:50.748Z,16.65
2023-05-14T06:52:18.668Z,16.69
2023-05-14T06:54:46.516Z,16.77
2023-05-14T06:57:14.462Z,16.84
2023-05-14T06:59:42.693Z,16.90
2023-05-14T07:02:10.749Z,16.90
2023-05-14T07:04:38.813Z,16.99
2023-05-14T07:07:06.830Z,17.27
2023-05-14T07:09:34.707Z,17.55
2023-05-14T07:12:02.696Z,17.96
2023-05-14T07:14:30.567Z,18.38
2023-05-14T07:16:58.517Z,18.70
2023-05-14T07:19:28.789Z,18.98
2023-05-14T07:21:57.656Z,19.21
2023-05-14T07:24:25.555Z,19.21
2023-05-14T07:26:54.731Z,19.13
2023-05-14T07:29:23.055Z,19.22
2023-05-14T07:31:51.681Z,19.28
2023-05-14T07:34:19.706Z,19.24
2023-05-14T07:36:47.903Z,19.34
2023-05-14T07:39:15.966Z,19.35
2023-05-14T07:41:44.360Z,19.26
2023-05-14T07:44:12.422Z,19.07
2023-05-14T07:46:41.078Z,18.90
2023-05-14T07:49:08.990Z,18.81
2023-05-14T07:51:36.866Z,18.82
2023-05-14T07:54:05.025Z,18.85
2023-05-14T07:56:32.956Z,18.89
2023-05-14T07:59:01.023Z,19.00
2023-05-14T08:01:28.932Z,19.17
2023-05-14T08:03:56.996Z,19.32
2023-05-14T08:06:27.584Z,19.39
2023-05-14T08:08:55.625Z,19.48
2023-05-14T08:11:23.622Z,19.59
2023-05-14T08:13:51.630Z,19.68
2023-05-14T08:16:19.740Z,19.78
2023-05-14T08:18:48.579Z,19.88
2023-05-14T08:21:16.959Z,19.99
2023-05-14T08:23:44.963Z,20.08
2023-05-14T08:26:12.933Z,20.17
2023-05-14T08:28:40.768Z,20.27
2023-05-14T08:31:08.826Z,20.26
2023-05-14T08:33:36.786Z,20.25
2023-05-14T08:36:05.039Z,20.30
2023-05-14T08:38:33.455Z,20.44
2023-05-14T08:41:01.579Z,20.51
2023-05-14T08:43:44.832Z,20.52
2023-05-14T08:46:15.187Z,20.48
2023-05-14T08:48:43.581Z,20.31
2023-05-14T08:51:12.160Z,20.14
2023-05-14T08:53:40.706Z,20.05
2023-05-14T08:56:09.525Z,19.95
2023-05-14T08:58:37.551Z,19.87
2023-05-14T09:01:05.779Z,19.81
2023-05-14T09:03:34.925Z,19.75
2023-05-14T09:06:04.016Z,19.76
2023-05-14T09:08:32.029Z,19.82
2023-05-14T09:10:59.973Z,19.83
2023-05-14T09:13:28.415Z,19.85
2023-05-14T09:15:57.443Z,19.89
2023-05-14T09:18:25.715Z,19.92
2023-05-14T09:20:53.811Z,19.95
2023-05-14T09:23:21.753Z,20.10
2023-05-14T09:25:49.724Z,20.24
2023-05-14T09:28:19.095Z,20.36
2023-05-14T09:30:51.646Z,20.47
2023-05-14T09:33:28.353Z,20.58
2023-05-14T09:36:00.308Z,20.60
2023-05-14T09:38:29.904Z,20.53
2023-05-14T09:40:59.222Z,20.50
2023-05-14T09:43:27.271Z,20.56
2023-05-14T09:45:55.340Z,20.65
2023-05-14T09:48:24.329Z,20.61
2023-05-14T09:50:52.371Z,20.67
2023-05-14T09:53:20.459Z,20.74
2023-05-14T09:55:49.371Z,20.76
2023-05-14T09:58:17.366Z,20.80
2023-05-14T10:00:46.932Z,20.83
2023-05-14T10:03:17.954Z,20.92
2023-05-14T10:05:49.399Z,21.03
2023-05-14T10:08:26.795Z,21.16
2023-05-14T10:10:56.110Z,21.32
2023-05-14T10:13:28.877Z,21.44
2023-05-14T10:16:09.583Z,21.58
2023-05-14T10:18:48.460Z,21.75
2023-05-14T10:21:21.760Z,21.98
2023-05-14T10:23:50.717Z,22.17
2023-05-14T10:26:18.753Z,22.35
2023-05-14T10:28:46.971Z,22.46
2023-05-14T10:31:15.023Z,22.53
2023-05-14T10:33:48.195Z,22.65
2023-05-14T10:36:17.926Z,22.85
2023-05-14T10:38:47.046Z,23.01
2023-05-14T10:41:18.056Z,23.14
2023-05-14T10:43:46.103Z,23.32
2023-05-14T10:46:14.809Z,23.35
2023-05-14T10:48:44.257Z,23.06
2023-05-14T10:51:12.685Z,22.83
2023-05-14T10:53:42.823Z,22.62
2023-05-14T10:56:14.666Z,22.29
2023-05-14T10:58:44.786Z,22.02
2023-05-14T11:01:13.780Z,21.87
2023-05-14T11:03:43.880Z,21.70
2023-05-14T11:06:13.957Z,21.45
2023-05-14T11:08:42.702Z,21.26
2023-05-14T11:11:11.020Z,21.17
2023-05-14T11:13:39.104Z,21.09
2023-05-14T11:16:21.873Z,21.00
2023-05-14T11:19:03.490Z,21.12
2023-05-14T11:21:32.925Z,21.32
2023-05-14T11:24:01.631Z,21.38
2023-05-14T11:26:29.643Z,21.45
2023-05-14T11:28:57.841Z,21.52
2023-05-14T11:31:25.842Z,21.51
2023-05-14T11:33:55.287Z,21.49
2023-05-14T11:36:23.283Z,21.56
2023-05-14T11:38:52.550Z,21.73
2023-05-14T11:41:22.911Z,21.89
2023-05-14T11:43:51.166Z,22.07
2023-05-14T11:46:19.236Z,22.21
2023-05-14T11:48:47.424Z,22.13
2023-05-14T11:51:15.390Z,21.89
2023-05-14T11:53:43.274Z,21.77
2023-05-14T11:56:11.454Z,21.77
2023-05-14T11:58:39.779Z,21.67
2023-05-14T12:01:13.325Z,21.55
2023-05-14T12:03:42.258Z,21.50
2023-05-14T12:06:10.588Z,21.55
2023-05-14T12:08:38.478Z,21.77
2023-05-14T12:11:07.050Z,22.02
2023-05-14T12:13:36.631Z,22.27
2023-05-14T12:16:05.398Z,22.46
2023-05-14T12:18:33.834Z,22.45
2023-05-14T12:21:07.947Z,22.46
2023-05-14T12:23:38.454Z,22.62
2023-05-14T12:26:08.285Z,22.83
2023-05-14T12:28:43.394Z,22.92
2023-05-14T12:31:11.674Z,22.96
2023-05-14T12:33:39.624Z,23.07
2023-05-14T12:36:20.273Z,23.21
2023-05-14T12:38:50.885Z,23.32
2023-05-14T12:41:18.876Z,23.44
2023-05-14T12:43:48.203Z,23.60
2023-05-14T12:46:17.192Z,23.69
2023-05-14T12:48:45.403Z,23.71
2023-05-14T12:51:13.431Z,23.78
2023-05-14T12:53:41.612Z,23.83
2023-05-14T12:56:09.760Z,23.80
2023-05-14T12:58:38.487Z,23.95
2023-05-14T13:01:06.840Z,24.22
2023-05-14T13:03:34.809Z,24.44
2023-05-14T13:06:02.885Z,24.63
2023-05-14T13:08:31.003Z,24.73
2023-05-14T13:10:58.976Z,24.74
2023-05-14T13:13:27.071Z,24.57
2023-05-14T13:15:55.596Z,24.32
2023-05-14T13:18:23.561Z,24.29
2023-05-14T13:20:51.866Z,24.36
2023-05-14T13:23:19.778Z,24.49
2023-05-14T13:25:49.760Z,24.53
2023-05-14T13:28:17.961Z,24.32
2023-05-14T13:31:05.521Z,24.16
2023-05-14T13:33:36.069Z,24.06
2023-05-14T13:36:04.821Z,24.00
2023-05-14T13:38:32.845Z,23.92
2023-05-14T13:41:04.230Z,23.70
2023-05-14T13:43:35.966Z,23.35
2023-05-14T13:46:06.049Z,23.12
2023-05-14T13:48:34.585Z,22.89
2023-05-14T13:51:02.854Z,22.73
2023-05-14T13:53:30.854Z,22.74
2023-05-14T13:56:00.953Z,22.75
2023-05-14T13:58:29.051Z,22.69
2023-05-14T14:00:57.116Z,22.59
2023-05-14T14:03:25.337Z,22.60
2023-05-14T14:05:53.487Z,22.71
2023-05-14T14:08:24.351Z,22.70
2023-05-14T14:10:54.517Z,22.63
2023-05-14T14:13:22.987Z,22.52
2023-05-14T14:15:51.315Z,22.52
2023-05-14T14:18:19.428Z,22.73
2023-05-14T14:20:47.695Z,22.95
2023-05-14T14:23:15.644Z,23.10
2023-05-14T14:25:43.764Z,23.20
2023-05-14T14:28:11.660Z,23.28
2023-05-14T14:30:39.681Z,23.26
2023-05-14T14:33:07.714Z,23.16
2023-05-14T14:35:36.434Z,23.01
2023-05-14T14:38:04.485Z,22.98
2023-05-14T14:40:35.191Z,23.00
2023-05-14T14:43:03.107Z,23.00
2023-05-14T14:45:31.151Z,22.98
2023-05-14T14:48:37.706Z,23.00
2023-05-14T14:51:06.793Z,23.07
2023-05-14T14:53:35.845Z,23.11
2023-05-14T14:56:04.501Z,23.02
2023-05-14T14:58:32.776Z,22.85
2023-05-14T15:01:01.450Z,22.80
2023-05-14T15:03:29.596Z,22.81
2023-05-14T15:05:57.633Z,22.81
2023-05-14T15:08:27.565Z,22.93
2023-05-14T15:10:59.469Z,23.04
2023-05-14T15:13:28.319Z,22.93
2023-05-14T15:15:56.292Z,22.66
2023-05-14T15:18:24.180Z,22.53
2023-05-14T15:20:52.871Z,22.46
2023-05-14T15:23:20.939Z,22.40
2023-05-14T15:25:49.490Z,22.39
2023-05-14T15:28:17.735Z,22.33
2023-05-14T15:30:47.694Z,22.27
2023-05-14T15:33:19.352Z,22.25
2023-05-14T15:35:47.465Z,22.17
2023-05-14T15:38:15.556Z,22.05
2023-05-14T15:40:43.614Z,21.96
2023-05-14T15:43:11.502Z,21.84
2023-05-14T15:45:39.442Z,21.71
2023-05-14T15:48:07.349Z,21.58
2023-05-14T15:50:35.314Z,21.49
2023-05-14T15:53:03.232Z,21.36
2023-05-14T15:55:31.995Z,21.22
2023-05-14T15:58:00.067Z,21.14
2023-05-14T16:00:28.038Z,21.09
2023-05-14T16:02:56.452Z,21.02
2023-05-14T16:05:24.530Z,20.94
2023-05-14T16:07:52.529Z,20.89
2023-05-14T16:10:21.525Z,20.87
2023-05-14T16:12:49.677Z,20.84
2023-05-14T16:15:17.656Z,20.79
2023-05-14T16:17:45.885Z,20.71
2023-05-14T16:20:15.520Z,20.64
2023-05-14T16:22:43.579Z,20.56
2023-05-14T16:25:11.447Z,20.50
2023-05-14T16:27:39.522Z,20.46
2023-05-14T16:30:08.023Z,20.36
2023-05-14T16:32:36.873Z,20.30
2023-05-14T16:35:05.740Z,20.28
2023-05-14T16:37:33.797Z,20.26
2023-05-14T16:40:01.796Z,20.26
2023-05-14T16:42:29.795Z,20.26
2023-05-14T16:44:57.718Z,20.24
2023-05-14T16:47:25.628Z,20.16
2023-05-14T16:49:53.638Z,20.08
2023-05-14T16:52:21.712Z,20.04
2023-05-14T16:54:49.667Z,20.04
2023-05-14T16:57:17.636Z,20.01
2023-05-14T16:59:46.411Z,19.91
2023-05-14T17:02:14.556Z,19.86
2023-05-14T17:04:43.316Z,19.83
2023-05-14T17:07:11.620Z,19.74
2023-05-14T17:09:39.525Z,19.59
2023-05-14T17:12:07.851Z,19.46
2023-05-14T17:14:35.968Z,19.33
2023-05-14T17:17:04.074Z,19.21
2023-05-14T17:19:32.112Z,19.10
2023-05-14T17:22:00.161Z,18.99
2023-05-14T17:24:28.085Z,18.89
2023-05-14T17:26:55.971Z,18.79
2023-05-14T17:29:23.859Z,18.67
2023-05-14T17:31:52.140Z,18.54
2023-05-14T17:34:20.276Z,18.42
2023-05-14T17:36:48.395Z,18.33
2023-05-14T17:39:16.436Z,18.26
2023-05-14T17:41:44.458Z,18.21
2023-05-14T17:44:13.209Z,18.15
2023-05-14T17:46:42.398Z,18.09
2023-05-14T17:49:11.862Z,18.03
2023-05-14T17:51:40.041Z,17.97
2023-05-14T17:54:07.922Z,17.91
2023-05-14T17:56:35.960Z,17.84
2023-05-14T17:59:04.179Z,17.77
2023-05-14T18:01:32.174Z,17.70
2023-05-14T18:04:00.349Z,17.63
2023-05-14T18:06:28.405Z,17.56
2023-05-14T18:08:56.369Z,17.49
2023-05-14T18:11:24.421Z,17.42
2023-05-14T18:13:52.383Z,17.36
2023-05-14T18:16:20.358Z,17.30
2023-05-14T18:18:48.330Z,17.25
2023-05-14T18:21:16.321Z,17.21
2023-05-14T18:23:44.590Z,17.14
2023-05-14T18:26:12.603Z,17.06
2023-05-14T18:28:40.778Z,16.99
2023-05-14T18:31:08.805Z,16.93
2023-05-14T18:33:37.161Z,16.87
2023-05-14T18:36:05.334Z,16.80
2023-05-14T18:38:33.395Z,16.75
2023-05-14T18:41:01.440Z,16.71
2023-05-14T18:43:29.355Z,16.67
2023-05-14T18:45:57.429Z,16.62
2023-05-14T18:48:26.405Z,16.57
2023-05-14T18:50:54.443Z,16.51
2023-05-14T18:53:22.367Z,16.47
2023-05-14T18:55:50.468Z,16.43
2023-05-14T18:58:18.456Z,16.37
2023-05-14T19:00:46.538Z,16.30
2023-05-14T19:03:14.683Z,16.17
2023-05-14T19:05:42.720Z,16.09
2023-05-14T19:08:10.928Z,16.02
2023-05-14T19:10:38.810Z,15.96
2023-05-14T19:13:07.033Z,15.95
2023-05-14T19:15:35.106Z,15.93
2023-05-14T19:18:03.314Z,15.91
2023-05-14T19:20:31.362Z,15.91
2023-05-14T19:23:01.632Z,15.89
2023-05-14T19:25:29.793Z,15.89
2023-05-14T19:27:57.926Z,15.88
2023-05-14T19:30:25.787Z,15.86
2023-05-14T19:32:53.879Z,15.84
2023-05-14T19:35:22.137Z,15.85
2023-05-14T19:37:50.220Z,15.86
2023-05-14T19:40:18.704Z,15.86
2023-05-14T19:42:46.745Z,15.86
2023-05-14T19:45:14.830Z,15.86
2023-05-14T19:47:43.024Z,15.85
2023-05-14T19:50:11.474Z,15.84
2023-05-14T19:52:39.410Z,15.82
2023-05-14T19:55:07.650Z,15.80
2023-05-14T19:57:35.651Z,15.73
2023-05-14T20:00:04.617Z,15.69
2023-05-14T20:02:40.814Z,15.68
2023-05-14T20:05:09.425Z,15.66
2023-05-14T20:07:39.594Z,15.66
2023-05-14T20:10:08.781Z,15.66
2023-05-14T20:12:36.726Z,15.65
2023-05-14T20:15:05.156Z,15.60
2023-05-14T20:17:33.109Z,15.58
2023-05-14T20:20:01.496Z,15.58
2023-05-14T20:22:29.446Z,15.57
2023-05-14T20:24:57.650Z,15.56
2023-05-14T20:27:25.728Z,15.56
2023-05-14T20:29:54.213Z,15.55
2023-05-14T20:32:25.087Z,15.53
2023-05-14T20:34:53.255Z,15.49
2023-05-14T20:37:21.642Z,15.44
2023-05-14T20:39:49.607Z,15.34
2023-05-14T20:42:17.743Z,15.27
2023-05-14T20:44:45.710Z,15.23
2023-05-14T20:47:16.471Z,15.20
2023-05-14T20:49:44.465Z,15.17
2023-05-14T20:52:13.397Z,15.15
2023-05-14T20:54:42.249Z,15.13
2023-05-14T20:57:11.811Z,15.12
2023-05-14T20:59:39.690Z,15.10
2023-05-14T21:02:08.146Z,15.09
2023-05-14T21:04:36.420Z,15.07
2023-05-14T21:07:05.275Z,15.04
2023-05-14T21:09:33.278Z,15.01
2023-05-14T21:12:01.259Z,14.97
2023-05-14T21:14:29.117Z,14.95
2023-05-14T21:16:57.070Z,14.94
2023-05-14T21:19:25.056Z,14.94
2023-05-14T21:21:53.070Z,14.93
2023-05-14T21:24:21.054Z,14.95
2023-05-14T21:26:49.053Z,14.94
2023-05-14T21:29:17.168Z,14.92
2023-05-14T21:31:45.108Z,14.92
2023-05-14T21:34:13.059Z,14.91
2023-05-14T21:36:41.068Z,14.89
2023-05-14T21:39:08.968Z,14.88
2023-05-14T21:41:36.877Z,14.87
2023-05-14T21:44:04.933Z,14.86
2023-05-14T21:46:32.979Z,14.82
2023-05-14T21:49:00.966Z,14.80
2023-05-14T21:51:28.970Z,14.74
2023-05-14T21:53:56.894Z,14.67
2023-05-14T21:56:24.802Z,14.64
2023-05-14T21:58:55.216Z,14.61
2023-05-14T22:01:23.266Z,14.59
2023-05-14T22:03:51.353Z,14.59
2023-05-14T22:06:19.503Z,14.56
2023-05-14T22:08:47.419Z,14.50
2023-05-14T22:11:15.381Z,14.45
2023-05-14T22:13:43.319Z,14.44
2023-05-14T22:16:13.702Z,14.45
2023-05-14T22:18:42.666Z,14.46
2023-05-14T22:21:10.705Z,14.44
2023-05-14T22:23:38.637Z,14.40
2023-05-14T22:26:06.629Z,14.35
2023-05-14T22:28:34.671Z,14.33
2023-05-14T22:31:04.199Z,14.32
2023-05-14T22:33:33.294Z,14.29
2023-05-14T22:36:01.269Z,14.27
2023-05-14T22:38:29.194Z,14.26
2023-05-14T22:40:57.056Z,14.24
2023-05-14T22:43:25.040Z,14.22
2023-05-14T22:45:53.211Z,14.18
2023-05-14T22:48:21.144Z,14.08
2023-05-14T22:50:49.032Z,13.99
2023-05-14T22:53:17.076Z,13.96
2023-05-14T22:55:45.115Z,13.95
2023-05-14T22:58:13.008Z,13.96
2023-05-14T23:00:40.994Z,13.94
2023-05-14T23:03:08.976Z,13.85
2023-05-14T23:05:36.878Z,13.81
2023-05-14T23:08:05.744Z,13.78
2023-05-14T23:10:35.529Z,13.76
2023-05-14T23:13:04.166Z,13.74
2023-05-14T23:15:33.246Z,13.68
2023-05-14T23:18:01.331Z,13.61
2023-05-14T23:20:29.301Z,13.58
2023-05-14T23:22:57.207Z,13.54
2023-05-14T23:25:25.415Z,13.50
2023-05-14T23:27:53.574Z,13.45
2023-05-14T23:30:21.966Z,13.40
2023-05-14T23:32:50.053Z,13.38
2023-05-14T23:35:18.309Z,13.37
2023-05-14T23:37:49.446Z,13.35
2023-05-14T23:40:17.825Z,13.37
2023-05-14T23:42:46.463Z,13.38
2023-05-14T23:45:14.415Z,13.38
2023-05-14T23:47:42.656Z,13.38
2023-05-14T23:50:10.848Z,13.40
2023-05-14T23:52:38.772Z,13.43
2023-05-14T23:55:06.980Z,13.46
2023-05-14T23:57:35.487Z,13.45
